createdAt,value
2022-08-19T00:02:31.713Z,20.30
2022-08-19T00:05:28.618Z,20.40
2022-08-19T00:08:25.513Z,20.40
2022-08-19T00:11:25.864Z,20.30
2022-08-19T00:14:25.550Z,20.30
2022-08-19T00:17:23.079Z,20.30
2022-08-19T00:20:22.338Z,20.30
2022-08-19T00:23:19.777Z,20.20
2022-08-19T00:26:17.290Z,20.40
2022-08-19T00:29:17.420Z,20.50
2022-08-19T00:32:14.283Z,20.50
2022-08-19T00:35:15.087Z,20.70
2022-08-19T00:38:11.931Z,20.90
2022-08-19T00:41:10.285Z,20.70
2022-08-19T00:44:30.146Z,20.50
2022-08-19T00:47:27.052Z,20.40
2022-08-19T00:50:25.387Z,20.30
2022-08-19T00:53:27.398Z,20.50
2022-08-19T00:56:24.737Z,20.40
2022-08-19T01:00:00.751Z,20.40
2022-08-19T01:02:39.713Z,20.20
2022-08-19T01:05:38.145Z,20.20
2022-08-19T01:08:35.349Z,20.00
2022-08-19T01:11:42.506Z,20.10
2022-08-19T01:14:41.137Z,20.00
2022-08-19T01:17:40.814Z,20.10
2022-08-19T01:20:41.570Z,20.10
2022-08-19T01:23:44.305Z,20.10
2022-08-19T01:26:45.342Z,20.00
2022-08-19T01:29:45.780Z,20.00
2022-08-19T01:32:44.184Z,20.10
2022-08-19T01:35:42.718Z,20.20
2022-08-19T01:38:44.488Z,20.00
2022-08-19T01:41:41.853Z,19.90
2022-08-19T01:44:41.818Z,20.00
2022-08-19T01:47:39.310Z,20.00
2022-08-19T01:50:36.856Z,20.10
2022-08-19T01:53:34.322Z,20.10
2022-08-19T01:56:31.195Z,20.10
2022-08-19T01:59:28.710Z,20.00
2022-08-19T02:02:26.065Z,20.10
2022-08-19T02:05:23.961Z,20.00
2022-08-19T02:08:21.025Z,20.00
2022-08-19T02:11:34.702Z,20.10
2022-08-19T02:14:31.662Z,20.10
2022-08-19T02:17:29.859Z,19.90
2022-08-19T02:20:26.706Z,19.80
2022-08-19T02:23:23.549Z,19.80
2022-08-19T02:26:22.143Z,19.80
2022-08-19T02:29:18.992Z,19.80
2022-08-19T02:32:16.433Z,19.80
2022-08-19T02:35:14.913Z,19.80
2022-08-19T02:38:27.189Z,19.70
2022-08-19T02:41:28.484Z,19.80
2022-08-19T02:44:30.284Z,19.70
2022-08-19T02:47:28.351Z,19.60
2022-08-19T02:50:25.287Z,19.60
2022-08-19T02:53:28.393Z,19.60
2022-08-19T02:56:28.350Z,19.40
2022-08-19T02:59:26.776Z,19.50
2022-08-19T03:02:23.617Z,19.40
2022-08-19T03:05:20.668Z,19.40
2022-08-19T03:08:38.876Z,19.40
2022-08-19T03:11:35.862Z,19.40
2022-08-19T03:14:37.023Z,19.40
2022-08-19T03:17:35.242Z,19.30
2022-08-19T03:20:32.152Z,19.40
2022-08-19T03:23:29.351Z,19.50
2022-08-19T03:26:26.874Z,19.40
2022-08-19T03:29:30.226Z,19.30
2022-08-19T03:32:32.865Z,19.30
2022-08-19T03:35:30.266Z,19.30
2022-08-19T03:38:27.115Z,19.20
2022-08-19T03:41:44.918Z,19.30
2022-08-19T03:44:45.504Z,19.30
2022-08-19T03:47:42.396Z,19.30
2022-08-19T03:50:42.217Z,19.30
2022-08-19T03:53:39.063Z,19.20
2022-08-19T03:56:39.614Z,19.30
2022-08-19T03:59:38.267Z,19.30
2022-08-19T04:02:35.134Z,19.20
2022-08-19T04:05:32.072Z,19.20
2022-08-19T04:08:28.919Z,19.20
2022-08-19T04:11:43.984Z,19.30
2022-08-19T04:14:41.335Z,19.30
2022-08-19T04:17:38.277Z,19.20
2022-08-19T04:20:42.204Z,19.20
2022-08-19T04:23:39.122Z,19.20
2022-08-19T04:26:43.577Z,19.20
2022-08-19T04:29:41.333Z,19.20
2022-08-19T04:32:38.185Z,19.20
2022-08-19T04:35:48.039Z,19.30
2022-08-19T04:38:44.879Z,19.20
2022-08-19T04:42:00.445Z,19.30
2022-08-19T04:44:57.999Z,19.30
2022-08-19T04:48:26.877Z,19.20
2022-08-19T04:51:16.235Z,19.30
2022-08-19T04:54:13.596Z,19.30
2022-08-19T04:57:11.389Z,19.30
2022-08-19T05:00:10.406Z,19.40
2022-08-19T05:03:08.190Z,19.40
2022-08-19T05:06:11.501Z,19.30
2022-08-19T05:09:08.365Z,19.30
2022-08-19T05:12:05.657Z,19.40
2022-08-19T05:15:06.762Z,19.40
2022-08-19T05:18:22.203Z,19.30
2022-08-19T05:21:39.853Z,19.30
2022-08-19T05:24:51.209Z,19.30
2022-08-19T05:27:55.057Z,19.30
2022-08-19T05:30:52.020Z,19.40
2022-08-19T05:33:49.041Z,19.50
2022-08-19T05:36:46.471Z,19.60
2022-08-19T05:39:44.471Z,19.60
2022-08-19T05:42:43.373Z,19.60
2022-08-19T05:45:42.337Z,19.70
2022-08-19T05:48:39.204Z,19.70
2022-08-19T05:51:38.212Z,19.70
2022-08-19T05:54:38.973Z,19.80
2022-08-19T05:57:35.900Z,19.80
2022-08-19T06:00:32.753Z,19.90
2022-08-19T06:03:29.601Z,19.90
2022-08-19T06:06:26.453Z,19.90
2022-08-19T06:09:24.512Z,19.90
2022-08-19T06:12:32.685Z,19.90
2022-08-19T06:15:29.683Z,20.20
2022-08-19T06:18:26.550Z,20.10
2022-08-19T06:21:26.595Z,20.10
2022-08-19T06:24:26.963Z,20.00
2022-08-19T06:27:24.100Z,19.90
2022-08-19T06:30:21.202Z,19.90
2022-08-19T06:33:18.195Z,19.90
2022-08-19T06:36:28.480Z,19.90
2022-08-19T06:39:28.324Z,20.00
2022-08-19T06:42:25.225Z,19.90
2022-08-19T06:45:35.516Z,19.90
2022-08-19T06:48:34.654Z,20.00
2022-08-19T06:51:35.365Z,20.00
2022-08-19T06:54:55.783Z,20.00
2022-08-19T06:57:54.531Z,19.90
2022-08-19T07:00:52.238Z,19.90
2022-08-19T07:03:49.472Z,19.90
2022-08-19T07:06:55.034Z,20.00
2022-08-19T07:09:59.007Z,19.90
2022-08-19T07:12:57.921Z,20.00
2022-08-19T07:15:54.915Z,19.90
2022-08-19T07:18:52.327Z,20.00
2022-08-19T07:21:53.627Z,20.00
2022-08-19T07:24:51.198Z,19.90
2022-08-19T07:27:54.244Z,19.90
2022-08-19T07:30:51.700Z,20.00
2022-08-19T07:33:53.452Z,19.90
2022-08-19T07:36:52.898Z,20.00
2022-08-19T07:39:49.865Z,20.00
2022-08-19T07:42:46.758Z,20.00
2022-08-19T07:45:43.825Z,20.10
2022-08-19T07:48:45.093Z,20.10
2022-08-19T07:51:41.942Z,20.00
2022-08-19T07:54:41.569Z,20.00
2022-08-19T07:57:39.723Z,20.00
2022-08-19T08:00:36.885Z,20.00
2022-08-19T08:03:52.888Z,20.20
2022-08-19T08:07:08.450Z,20.10
2022-08-19T08:10:12.622Z,20.20
2022-08-19T08:13:17.833Z,20.20
2022-08-19T08:16:14.753Z,20.30
2022-08-19T08:19:20.244Z,20.50
2022-08-19T08:22:40.924Z,20.40
2022-08-19T08:25:38.781Z,20.40
2022-08-19T08:28:35.629Z,20.50
2022-08-19T08:31:34.533Z,20.40
2022-08-19T08:34:31.414Z,20.60
2022-08-19T08:37:28.442Z,20.70
2022-08-19T08:40:39.119Z,20.60
2022-08-19T08:43:39.534Z,20.70
2022-08-19T08:46:48.590Z,20.60
2022-08-19T08:49:54.566Z,20.50
2022-08-19T08:52:57.017Z,20.80
2022-08-19T08:55:54.344Z,20.90
2022-08-19T08:59:09.391Z,20.90
2022-08-19T09:02:06.226Z,20.80
2022-08-19T09:05:04.600Z,20.80
2022-08-19T09:08:31.854Z,20.80
2022-08-19T09:11:59.882Z,20.80
2022-08-19T09:15:09.461Z,20.70
2022-08-19T09:18:07.396Z,20.80
2022-08-19T09:21:04.345Z,21.10
2022-08-19T09:24:03.602Z,20.90
2022-08-19T09:27:00.587Z,20.80
2022-08-19T09:30:00.466Z,20.90
2022-08-19T09:32:58.729Z,20.80
2022-08-19T09:36:10.698Z,20.60
2022-08-19T09:39:14.924Z,20.60
2022-08-19T09:42:16.350Z,20.70
2022-08-19T09:45:27.029Z,20.80
2022-08-19T09:48:23.873Z,21.10
2022-08-19T09:51:25.702Z,21.00
2022-08-19T09:54:23.710Z,21.00
2022-08-19T09:57:21.972Z,21.20
2022-08-19T10:00:19.093Z,21.20
2022-08-19T10:03:15.956Z,21.30
2022-08-19T10:06:14.668Z,21.20
2022-08-19T10:09:12.631Z,21.10
2022-08-19T10:12:11.292Z,21.00
2022-08-19T10:15:09.343Z,21.30
2022-08-19T10:18:08.179Z,21.20
2022-08-19T10:21:11.857Z,21.20
2022-08-19T10:24:09.435Z,21.30
2022-08-19T10:27:06.855Z,21.30
2022-08-19T10:30:09.905Z,21.30
2022-08-19T10:33:10.943Z,21.30
2022-08-19T10:36:12.583Z,21.40
2022-08-19T10:39:11.705Z,21.50
2022-08-19T10:42:11.610Z,21.90
2022-08-19T10:45:10.629Z,21.90
2022-08-19T10:48:07.489Z,21.80
2022-08-19T10:51:29.303Z,22.10
2022-08-19T10:54:47.707Z,21.90
2022-08-19T10:58:04.155Z,22.00
2022-08-19T11:01:04.371Z,21.90
2022-08-19T11:04:04.000Z,22.30
2022-08-19T11:07:00.834Z,22.30
2022-08-19T11:09:57.793Z,22.30
2022-08-19T11:12:55.719Z,22.60
2022-08-19T11:16:07.809Z,22.40
2022-08-19T11:19:08.161Z,22.40
2022-08-19T11:22:05.149Z,22.40
2022-08-19T11:25:03.372Z,22.60
2022-08-19T11:28:00.217Z,22.50
2022-08-19T11:30:57.069Z,22.40
2022-08-19T11:33:54.850Z,22.50
2022-08-19T11:36:52.971Z,22.20
2022-08-19T11:39:51.843Z,22.20
2022-08-19T11:42:56.494Z,22.30
2022-08-19T11:45:55.136Z,22.30
2022-08-19T11:48:52.542Z,22.70
2022-08-19T11:51:51.589Z,22.80
2022-08-19T11:54:50.679Z,22.80
2022-08-19T11:57:47.794Z,22.80
2022-08-19T12:00:45.947Z,22.80
2022-08-19T12:03:44.498Z,23.00
2022-08-19T12:06:42.556Z,23.00
2022-08-19T12:09:42.627Z,23.00
2022-08-19T12:12:43.689Z,22.60
2022-08-19T12:15:41.806Z,22.90
2022-08-19T12:18:39.412Z,22.60
2022-08-19T12:21:36.773Z,22.70
2022-08-19T12:24:34.869Z,23.30
2022-08-19T12:27:40.873Z,23.40
2022-08-19T12:30:39.532Z,23.20
2022-08-19T12:33:36.386Z,23.20
2022-08-19T12:36:33.557Z,23.70
2022-08-19T12:39:37.590Z,23.60
2022-08-19T12:42:34.511Z,23.90
2022-08-19T12:45:31.363Z,24.00
2022-08-19T12:48:34.357Z,23.90
2022-08-19T12:51:32.443Z,23.80
2022-08-19T12:54:31.539Z,23.60
2022-08-19T12:57:32.684Z,23.90
2022-08-19T13:00:33.722Z,23.60
2022-08-19T13:03:30.611Z,23.40
2022-08-19T13:06:27.812Z,24.00
2022-08-19T13:09:24.668Z,23.40
2022-08-19T13:12:22.072Z,23.30
2022-08-19T13:15:24.539Z,23.50
2022-08-19T13:18:21.517Z,23.30
2022-08-19T13:21:23.870Z,23.30
2022-08-19T13:24:20.795Z,23.90
2022-08-19T13:27:17.670Z,23.70
2022-08-19T13:30:36.035Z,23.50
2022-08-19T13:33:34.597Z,23.60
2022-08-19T13:36:31.484Z,23.40
2022-08-19T13:39:28.361Z,23.20
2022-08-19T13:42:25.188Z,23.20
2022-08-19T13:45:25.766Z,23.40
2022-08-19T13:48:24.617Z,23.50
2022-08-19T13:51:21.566Z,23.40
2022-08-19T13:54:18.592Z,23.20
2022-08-19T13:57:15.516Z,23.00
2022-08-19T14:00:20.613Z,22.90
2022-08-19T14:03:17.526Z,23.40
2022-08-19T14:06:14.365Z,23.10
2022-08-19T14:09:11.354Z,22.90
2022-08-19T14:12:08.873Z,23.10
2022-08-19T14:15:09.581Z,23.00
2022-08-19T14:18:06.458Z,23.00
2022-08-19T14:21:05.531Z,23.00
2022-08-19T14:24:02.555Z,23.10
2022-08-19T14:27:00.374Z,23.10
2022-08-19T14:29:57.705Z,23.00
2022-08-19T14:32:56.301Z,22.90
2022-08-19T14:35:53.133Z,23.00
2022-08-19T14:38:58.528Z,23.50
2022-08-19T14:41:55.462Z,23.10
2022-08-19T14:44:52.307Z,23.00
2022-08-19T14:47:49.467Z,23.40
2022-08-19T14:50:46.461Z,23.10
2022-08-19T14:53:44.383Z,23.50
2022-08-19T14:56:42.092Z,23.20
2022-08-19T14:59:39.363Z,22.90
2022-08-19T15:02:36.357Z,23.00
2022-08-19T15:05:33.221Z,23.00
2022-08-19T15:08:32.650Z,23.40
2022-08-19T15:11:29.701Z,23.20
2022-08-19T15:14:28.418Z,23.20
2022-08-19T15:17:45.816Z,23.70
2022-08-19T15:20:44.411Z,23.30
2022-08-19T15:23:45.474Z,23.00
2022-08-19T15:26:43.741Z,23.30
2022-08-19T15:29:40.956Z,23.30
2022-08-19T15:32:39.523Z,23.60
2022-08-19T15:35:36.373Z,23.40
2022-08-19T15:38:38.920Z,23.00
2022-08-19T15:41:38.604Z,23.40
2022-08-19T15:44:35.562Z,23.90
2022-08-19T15:47:34.650Z,23.80
2022-08-19T15:50:32.344Z,24.00
2022-08-19T15:53:29.974Z,23.80
2022-08-19T15:56:58.092Z,24.00
2022-08-19T16:00:13.521Z,23.80
2022-08-19T16:03:33.705Z,23.70
2022-08-19T16:06:37.332Z,23.70
2022-08-19T16:09:34.833Z,23.60
2022-08-19T16:12:31.902Z,23.90
2022-08-19T16:15:30.623Z,23.70
2022-08-19T16:18:28.109Z,23.40
2022-08-19T16:21:33.084Z,23.60
2022-08-19T16:24:30.074Z,23.20
2022-08-19T16:27:27.435Z,23.10
2022-08-19T16:30:24.290Z,23.20
2022-08-19T16:33:23.161Z,23.20
2022-08-19T16:36:20.312Z,23.40
2022-08-19T16:39:18.970Z,23.60
2022-08-19T16:42:16.013Z,23.40
2022-08-19T16:45:12.893Z,23.20
2022-08-19T16:48:09.745Z,23.30
2022-08-19T16:51:09.669Z,23.10
2022-08-19T16:54:07.300Z,22.80
2022-08-19T16:57:08.667Z,22.90
2022-08-19T17:00:13.782Z,22.80
2022-08-19T17:03:14.967Z,22.80
2022-08-19T17:06:21.021Z,22.80
2022-08-19T17:09:18.826Z,23.00
2022-08-19T17:12:30.798Z,23.10
2022-08-19T17:15:29.345Z,22.70
2022-08-19T17:18:26.549Z,22.50
2022-08-19T17:21:32.532Z,22.40
2022-08-19T17:24:29.979Z,22.30
2022-08-19T17:27:32.021Z,22.10
2022-08-19T17:30:29.403Z,22.00
2022-08-19T17:33:26.309Z,21.90
2022-08-19T17:36:26.259Z,21.80
2022-08-19T17:39:23.205Z,21.70
2022-08-19T17:42:20.299Z,21.80
2022-08-19T17:45:17.831Z,21.80
2022-08-19T17:48:15.523Z,21.80
2022-08-19T17:51:34.128Z,21.60
2022-08-19T17:54:33.802Z,21.50
2022-08-19T17:57:30.871Z,21.80
2022-08-19T18:00:28.011Z,21.80
2022-08-19T18:03:26.401Z,21.60
2022-08-19T18:06:23.393Z,21.60
2022-08-19T18:09:20.962Z,21.50
2022-08-19T18:12:26.900Z,21.40
2022-08-19T18:15:24.366Z,21.40
2022-08-19T18:18:21.479Z,21.20
2022-08-19T18:21:19.025Z,21.10
2022-08-19T18:24:16.450Z,20.90
2022-08-19T18:27:13.441Z,20.90
2022-08-19T18:30:11.029Z,20.90
2022-08-19T18:33:14.117Z,20.90
2022-08-19T18:36:10.983Z,20.70
2022-08-19T18:39:46.602Z,20.80
2022-08-19T18:43:24.259Z,20.70
2022-08-19T18:46:39.726Z,20.50
2022-08-19T18:49:36.576Z,20.50
2022-08-19T18:52:35.465Z,20.50
2022-08-19T18:55:32.317Z,20.60
2022-08-19T18:58:33.786Z,20.60
2022-08-19T19:01:39.406Z,20.60
2022-08-19T19:04:38.821Z,20.70
2022-08-19T19:07:36.001Z,20.60
2022-08-19T19:10:33.398Z,20.50
2022-08-19T19:13:30.878Z,20.40
2022-08-19T19:16:29.429Z,20.40
2022-08-19T19:19:26.676Z,20.30
2022-08-19T19:22:24.750Z,20.20
2022-08-19T19:25:23.270Z,20.20
2022-08-19T19:28:25.190Z,20.20
2022-08-19T19:31:26.752Z,20.10
2022-08-19T19:34:29.773Z,20.10
2022-08-19T19:37:27.861Z,20.10
2022-08-19T19:40:24.883Z,20.00
2022-08-19T19:43:21.814Z,19.90
2022-08-19T19:46:18.737Z,20.00
2022-08-19T19:49:15.762Z,20.10
2022-08-19T19:52:14.027Z,20.10
2022-08-19T19:55:17.889Z,20.00
2022-08-19T19:58:14.801Z,20.00
2022-08-19T20:01:12.941Z,19.90
2022-08-19T20:04:18.592Z,19.80
2022-08-19T20:07:15.575Z,19.70
2022-08-19T20:10:13.546Z,19.60
2022-08-19T20:13:11.640Z,19.60
2022-08-19T20:16:08.641Z,19.60
2022-08-19T20:19:05.566Z,19.60
2022-08-19T20:22:03.521Z,19.60
2022-08-19T20:25:01.788Z,19.50
2022-08-19T20:28:01.130Z,19.50
2022-08-19T20:30:58.442Z,19.40
2022-08-19T20:33:55.648Z,19.40
2022-08-19T20:36:52.488Z,19.40
2022-08-19T20:39:49.559Z,19.50
2022-08-19T20:42:46.589Z,19.40
2022-08-19T20:45:44.510Z,19.40
2022-08-19T20:48:42.878Z,19.30
2022-08-19T20:51:39.754Z,19.40
2022-08-19T20:54:36.616Z,19.50
2022-08-19T20:57:33.494Z,19.40
2022-08-19T21:00:30.686Z,19.30
2022-08-19T21:03:32.484Z,19.30
2022-08-19T21:06:29.357Z,19.40
2022-08-19T21:09:26.379Z,19.20
2022-08-19T21:12:23.204Z,19.20
2022-08-19T21:15:20.439Z,19.10
2022-08-19T21:18:20.697Z,19.10
2022-08-19T21:21:17.548Z,19.00
2022-08-19T21:24:14.819Z,18.90
2022-08-19T21:27:11.711Z,19.00
2022-08-19T21:30:10.203Z,19.00
2022-08-19T21:33:07.479Z,19.00
2022-08-19T21:36:06.391Z,19.00
2022-08-19T21:39:04.358Z,19.00
2022-08-19T21:42:01.234Z,18.90
2022-08-19T21:44:58.063Z,18.90
2022-08-19T21:47:55.080Z,18.90
2022-08-19T21:50:52.010Z,18.80
2022-08-19T21:53:48.886Z,18.80
2022-08-19T21:56:50.380Z,18.80
2022-08-19T21:59:47.237Z,18.70
2022-08-19T22:02:44.132Z,18.70
2022-08-19T22:05:40.964Z,18.70
2022-08-19T22:08:38.203Z,18.70
2022-08-19T22:11:35.258Z,18.70
2022-08-19T22:14:33.678Z,18.70
2022-08-19T22:17:32.998Z,18.60
2022-08-19T22:20:32.202Z,18.60
2022-08-19T22:23:29.109Z,18.60
2022-08-19T22:26:25.948Z,18.70
2022-08-19T22:29:31.860Z,18.60
2022-08-19T22:32:31.033Z,18.60
2022-08-19T22:35:34.431Z,18.50
2022-08-19T22:38:31.942Z,18.50
2022-08-19T22:41:28.789Z,18.50
2022-08-19T22:44:26.423Z,18.50
2022-08-19T22:47:23.285Z,18.60
2022-08-19T22:50:24.382Z,18.60
2022-08-19T22:53:21.250Z,18.50
2022-08-19T22:56:19.463Z,18.40
2022-08-19T22:59:16.318Z,18.40
2022-08-19T23:02:23.388Z,18.40
2022-08-19T23:05:23.855Z,18.30
2022-08-19T23:08:20.692Z,18.30
2022-08-19T23:11:17.563Z,18.30
2022-08-19T23:14:15.709Z,18.20
2022-08-19T23:17:12.562Z,18.30
2022-08-19T23:20:14.331Z,18.30
2022-08-19T23:23:18.601Z,18.20
2022-08-19T23:26:15.438Z,18.10
2022-08-19T23:29:31.100Z,18.10
2022-08-19T23:32:27.945Z,18.10
2022-08-19T23:35:26.137Z,18.00
2022-08-19T23:38:24.156Z,18.10
2022-08-19T23:41:23.132Z,18.00
2022-08-19T23:44:19.965Z,18.00
2022-08-19T23:47:17.623Z,18.00
2022-08-19T23:50:16.066Z,18.00
2022-08-19T23:53:13.638Z,18.00
2022-08-19T23:56:12.628Z,17.90
2022-08-19T23:59:09.503Z,18.00
